sensor_id;sensor_type;location;lat;lon;timestamp;pressure;altitude;pressure_sealevel;temperature;humidity
23643;BME280;11998;55.788;37.572;2023-05-23T00:00:47;99052.16;;;103.31;3.18
23643;BME280;11998;55.788;37.572;2023-05-23T00:01:51;99045.66;;;103.03;3.54
23643;BME280;11998;55.788;37.572;2023-05-23T00:02:54;99048.94;;;102.55;3.18
23643;BME280;11998;55.788;37.572;2023-05-23T00:03:54;99049.63;;;103.45;3.23
23643;BME280;11998;55.788;37.572;2023-05-23T00:04:55;99047.75;;;102.63;3.67
23643;BME280;11998;55.788;37.572;2023-05-23T00:05:58;99043.53;;;103.07;3.52
23643;BME280;11998;55.788;37.572;2023-05-23T00:06:58;99051.09;;;103.82;3.20
23643;BME280;11998;55.788;37.572;2023-05-23T00:08:02;99039.66;;;102.87;3.27
23643;BME280;11998;55.788;37.572;2023-05-23T00:09:03;99051.97;;;103.27;3.54
23643;BME280;11998;55.788;37.572;2023-05-23T00:10:03;99040.19;;;102.12;3.31
23643;BME280;11998;55.788;37.572;2023-05-23T00:11:04;99045.22;;;103.48;3.55
23643;BME280;11998;55.788;37.572;2023-05-23T00:12:05;99041.38;;;102.56;3.37
23643;BME280;11998;55.788;37.572;2023-05-23T00:13:06;99034.88;;;102.13;3.52
23643;BME280;11998;55.788;37.572;2023-05-23T00:14:08;99042.00;;;102.53;3.22
23643;BME280;11998;55.788;37.572;2023-05-23T00:15:09;99043.41;;;103.41;3.05
23643;BME280;11998;55.788;37.572;2023-05-23T00:16:11;99023.53;;;100.02;3.88
23643;BME280;11998;55.788;37.572;2023-05-23T00:17:11;99017.66;;;100.20;3.53
23643;BME280;11998;55.788;37.572;2023-05-23T00:18:12;99017.56;;;100.75;3.55
23643;BME280;11998;55.788;37.572;2023-05-23T00:19:12;99024.75;;;100.98;3.42
23643;BME280;11998;55.788;37.572;2023-05-23T00:20:16;99040.97;;;102.13;3.62
23643;BME280;11998;55.788;37.572;2023-05-23T00:21:17;99038.78;;;103.02;3.20
23643;BME280;11998;55.788;37.572;2023-05-23T00:22:18;99040.34;;;102.68;3.53
23643;BME280;11998;55.788;37.572;2023-05-23T00:23:18;99042.78;;;102.89;3.29
23643;BME280;11998;55.788;37.572;2023-05-23T00:24:20;99013.50;;;100.00;3.78
23643;BME280;11998;55.788;37.572;2023-05-23T00:25:21;99038.34;;;102.23;3.43
23643;BME280;11998;55.788;37.572;2023-05-23T00:26:21;99023.84;;;100.79;3.67
23643;BME280;11998;55.788;37.572;2023-05-23T00:27:23;99022.88;;;99.76;3.42
23643;BME280;11998;55.788;37.572;2023-05-23T00:28:23;99021.50;;;100.07;3.75
23643;BME280;11998;55.788;37.572;2023-05-23T00:29:25;99028.63;;;100.55;3.64
23643;BME280;11998;55.788;37.572;2023-05-23T00:30:29;99019.47;;;100.69;3.72
23643;BME280;11998;55.788;37.572;2023-05-23T00:31:30;99038.84;;;101.36;3.39
23643;BME280;11998;55.788;37.572;2023-05-23T00:32:31;99028.53;;;100.53;3.67
23643;BME280;11998;55.788;37.572;2023-05-23T00:33:31;99023.94;;;100.38;3.43
23643;BME280;11998;55.788;37.572;2023-05-23T00:34:33;99030.88;;;100.84;3.57
23643;BME280;11998;55.788;37.572;2023-05-23T00:35:34;99042.75;;;101.86;3.37
23643;BME280;11998;55.788;37.572;2023-05-23T00:36:34;99040.94;;;101.63;3.58
23643;BME280;11998;55.788;37.572;2023-05-23T00:37:36;99042.69;;;103.05;3.11
23643;BME280;11998;55.788;37.572;2023-05-23T00:38:37;99041.72;;;102.29;3.53
23643;BME280;11998;55.788;37.572;2023-05-23T00:39:38;99035.47;;;101.93;3.50
23643;BME280;11998;55.788;37.572;2023-05-23T00:40:39;99034.38;;;102.36;3.47
23643;BME280;11998;55.788;37.572;2023-05-23T00:41:40;99029.22;;;101.42;3.40
23643;BME280;11998;55.788;37.572;2023-05-23T00:42:40;99035.09;;;103.06;3.61
23643;BME280;11998;55.788;37.572;2023-05-23T00:43:41;99018.50;;;100.64;3.67
23643;BME280;11998;55.788;37.572;2023-05-23T00:44:41;99036.69;;;101.55;3.36
23643;BME280;11998;55.788;37.572;2023-05-23T00:45:42;99029.75;;;100.48;3.74
23643;BME280;11998;55.788;37.572;2023-05-23T00:46:44;99014.84;;;99.16;4.01
23643;BME280;11998;55.788;37.572;2023-05-23T00:47:47;99012.28;;;98.99;3.51
23643;BME280;11998;55.788;37.572;2023-05-23T00:48:47;99015.72;;;99.05;3.91
23643;BME280;11998;55.788;37.572;2023-05-23T00:49:48;99013.19;;;98.39;3.91
23643;BME280;11998;55.788;37.572;2023-05-23T00:50:49;99023.75;;;99.65;3.80
23643;BME280;11998;55.788;37.572;2023-05-23T00:51:50;99022.38;;;99.68;3.45
23643;BME280;11998;55.788;37.572;2023-05-23T00:52:51;99035.25;;;100.65;3.68
23643;BME280;11998;55.788;37.572;2023-05-23T00:53:53;99028.63;;;101.14;3.41
23643;BME280;11998;55.788;37.572;2023-05-23T00:54:53;99048.22;;;102.06;3.21
23643;BME280;11998;55.788;37.572;2023-05-23T00:55:55;99050.97;;;102.67;2.98
23643;BME280;11998;55.788;37.572;2023-05-23T00:56:56;99032.56;;;101.32;3.40
23643;BME280;11998;55.788;37.572;2023-05-23T00:57:56;99021.25;;;99.75;3.82
23643;BME280;11998;55.788;37.572;2023-05-23T00:58:58;99029.28;;;100.67;3.72
23643;BME280;11998;55.788;37.572;2023-05-23T01:00:00;99021.94;;;98.70;3.75
23643;BME280;11998;55.788;37.572;2023-05-23T01:01:01;99028.00;;;100.43;3.58
23643;BME280;11998;55.788;37.572;2023-05-23T01:02:02;99025.31;;;100.21;3.54
23643;BME280;11998;55.788;37.572;2023-05-23T01:03:03;99015.09;;;99.20;3.56
23643;BME280;11998;55.788;37.572;2023-05-23T01:04:06;99016.78;;;98.98;3.92
23643;BME280;11998;55.788;37.572;2023-05-23T01:05:08;99022.19;;;99.92;3.79
23643;BME280;11998;55.788;37.572;2023-05-23T01:06:09;99010.28;;;98.90;3.94
23643;BME280;11998;55.788;37.572;2023-05-23T01:07:10;99006.22;;;99.77;3.76
23643;BME280;11998;55.788;37.572;2023-05-23T01:08:11;99018.19;;;99.48;3.49
23643;BME280;11998;55.788;37.572;2023-05-23T01:09:14;99010.50;;;98.94;3.62
23643;BME280;11998;55.788;37.572;2023-05-23T01:10:17;99008.47;;;99.63;3.79
23643;BME280;11998;55.788;37.572;2023-05-23T01:11:32;99008.28;;;98.57;3.53
23643;BME280;11998;55.788;37.572;2023-05-23T01:13:48;99014.53;;;99.63;3.84
23643;BME280;11998;55.788;37.572;2023-05-23T01:16:06;99007.34;;;98.66;3.48
23643;BME280;11998;55.788;37.572;2023-05-23T01:17:16;98997.84;;;98.23;3.65
23643;BME280;11998;55.788;37.572;2023-05-23T01:18:48;98999.88;;;98.44;3.88
23643;BME280;11998;55.788;37.572;2023-05-23T01:20:03;99003.72;;;99.07;3.39
23643;BME280;11998;55.788;37.572;2023-05-23T01:21:17;99013.41;;;99.98;3.35
23643;BME280;11998;55.788;37.572;2023-05-23T01:25:27;99012.41;;;99.93;3.38
23643;BME280;11998;55.788;37.572;2023-05-23T01:26:40;99007.88;;;98.88;3.56
23643;BME280;11998;55.788;37.572;2023-05-23T01:27:52;99002.75;;;98.65;3.83
23643;BME280;11998;55.788;37.572;2023-05-23T01:29:00;99010.63;;;100.59;3.47
23643;BME280;11998;55.788;37.572;2023-05-23T01:30:12;99011.53;;;100.48;3.34
23643;BME280;11998;55.788;37.572;2023-05-23T01:31:14;98999.53;;;98.63;3.43
23643;BME280;11998;55.788;37.572;2023-05-23T01:32:16;98998.41;;;97.73;4.12
23643;BME280;11998;55.788;37.572;2023-05-23T01:33:19;98998.81;;;100.08;3.38
23643;BME280;11998;55.788;37.572;2023-05-23T01:34:20;98994.63;;;99.07;3.39
23643;BME280;11998;55.788;37.572;2023-05-23T01:35:24;99006.47;;;100.52;3.52
23643;BME280;11998;55.788;37.572;2023-05-23T01:36:28;99020.53;;;101.50;3.49
23643;BME280;11998;55.788;37.572;2023-05-23T01:37:29;99016.06;;;102.00;3.43
23643;BME280;11998;55.788;37.572;2023-05-23T01:38:29;99009.03;;;101.49;3.53
23643;BME280;11998;55.788;37.572;2023-05-23T01:39:30;99020.38;;;102.29;3.48
23643;BME280;11998;55.788;37.572;2023-05-23T01:40:30;99024.13;;;103.17;3.07
23643;BME280;11998;55.788;37.572;2023-05-23T01:41:31;99002.41;;;99.63;3.35
23643;BME280;11998;55.788;37.572;2023-05-23T01:42:31;99002.94;;;99.87;3.71
23643;BME280;11998;55.788;37.572;2023-05-23T01:43:32;99002.50;;;98.87;3.90
23643;BME280;11998;55.788;37.572;2023-05-23T01:44:34;98992.09;;;97.00;3.71
23643;BME280;11998;55.788;37.572;2023-05-23T01:45:35;98991.56;;;97.84;3.65
23643;BME280;11998;55.788;37.572;2023-05-23T01:46:37;98996.56;;;98.15;3.91
23643;BME280;11998;55.788;37.572;2023-05-23T01:47:41;98988.69;;;97.63;3.60
23643;BME280;11998;55.788;37.572;2023-05-23T01:48:43;99003.91;;;97.88;4.03
23643;BME280;11998;55.788;37.572;2023-05-23T01:49:45;99000.97;;;98.37;3.69
23643;BME280;11998;55.788;37.572;2023-05-23T01:50:46;98992.31;;;98.20;3.63
23643;BME280;11998;55.788;37.572;2023-05-23T01:51:47;99007.81;;;99.78;3.44
23643;BME280;11998;55.788;37.572;2023-05-23T01:52:48;98994.91;;;98.37;3.50
23643;BME280;11998;55.788;37.572;2023-05-23T01:53:50;99007.81;;;100.49;3.66
23643;BME280;11998;55.788;37.572;2023-05-23T01:54:51;99029.81;;;102.53;3.40
23643;BME280;11998;55.788;37.572;2023-05-23T01:55:52;99026.69;;;101.52;3.53
23643;BME280;11998;55.788;37.572;2023-05-23T01:56:55;99037.88;;;101.48;3.45
23643;BME280;11998;55.788;37.572;2023-05-23T01:57:56;99030.63;;;101.39;3.50
23643;BME280;11998;55.788;37.572;2023-05-23T01:58:57;98999.88;;;99.46;3.35
23643;BME280;11998;55.788;37.572;2023-05-23T01:59:58;99009.72;;;100.86;3.48
23643;BME280;11998;55.788;37.572;2023-05-23T02:00:59;99003.94;;;96.75;3.65
23643;BME280;11998;55.788;37.572;2023-05-23T02:01:59;98987.97;;;94.59;4.06
23643;BME280;11998;55.788;37.572;2023-05-23T02:03:00;98982.22;;;95.21;3.93
23643;BME280;11998;55.788;37.572;2023-05-23T02:04:01;98995.19;;;97.24;3.77
23643;BME280;11998;55.788;37.572;2023-05-23T02:05:01;98999.31;;;97.40;3.61
23643;BME280;11998;55.788;37.572;2023-05-23T02:06:02;99011.81;;;100.24;3.29
23643;BME280;11998;55.788;37.572;2023-05-23T02:07:03;99016.59;;;101.48;3.45
23643;BME280;11998;55.788;37.572;2023-05-23T02:08:03;99003.94;;;101.37;3.29
23643;BME280;11998;55.788;37.572;2023-05-23T02:09:04;99004.66;;;100.61;3.53
23643;BME280;11998;55.788;37.572;2023-05-23T02:10:07;99008.41;;;101.05;3.40
23643;BME280;11998;55.788;37.572;2023-05-23T02:11:08;99000.03;;;100.60;3.53
23643;BME280;11998;55.788;37.572;2023-05-23T02:12:09;99010.78;;;101.69;3.42
23643;BME280;11998;55.788;37.572;2023-05-23T02:13:11;99014.56;;;102.71;3.41
23643;BME280;11998;55.788;37.572;2023-05-23T02:14:12;98995.78;;;100.38;3.66
23643;BME280;11998;55.788;37.572;2023-05-23T02:15:13;99002.47;;;102.04;3.30
23643;BME280;11998;55.788;37.572;2023-05-23T02:16:13;99016.94;;;103.28;2.88
23643;BME280;11998;55.788;37.572;2023-05-23T02:17:14;99017.44;;;103.40;3.44
23643;BME280;11998;55.788;37.572;2023-05-23T02:18:16;99017.81;;;103.90;2.95
23643;BME280;11998;55.788;37.572;2023-05-23T02:19:17;99002.25;;;104.45;3.35
23643;BME280;11998;55.788;37.572;2023-05-23T02:20:17;99005.44;;;104.71;3.32
23643;BME280;11998;55.788;37.572;2023-05-23T02:21:18;99006.97;;;105.18;2.84
23643;BME280;11998;55.788;37.572;2023-05-23T02:22:22;99020.97;;;105.77;3.06
23643;BME280;11998;55.788;37.572;2023-05-23T02:23:23;99008.44;;;104.69;3.18
23643;BME280;11998;55.788;37.572;2023-05-23T02:24:24;99004.75;;;104.29;3.19
23643;BME280;11998;55.788;37.572;2023-05-23T02:25:25;99011.81;;;105.27;2.89
23643;BME280;11998;55.788;37.572;2023-05-23T02:26:26;98992.84;;;105.07;2.80
23643;BME280;11998;55.788;37.572;2023-05-23T02:27:27;99001.78;;;103.89;3.34
23643;BME280;11998;55.788;37.572;2023-05-23T02:28:28;98987.75;;;101.98;3.42
23643;BME280;11998;55.788;37.572;2023-05-23T02:29:28;98985.94;;;102.09;3.11
23643;BME280;11998;55.788;37.572;2023-05-23T02:30:29;99003.06;;;103.62;3.18
23643;BME280;11998;55.788;37.572;2023-05-23T02:31:30;99003.31;;;104.54;3.17
23643;BME280;11998;55.788;37.572;2023-05-23T02:32:30;99006.59;;;104.16;3.22
23643;BME280;11998;55.788;37.572;2023-05-23T02:33:31;99015.00;;;104.38;2.76
23643;BME280;11998;55.788;37.572;2023-05-23T02:34:32;98998.00;;;103.11;3.30
23643;BME280;11998;55.788;37.572;2023-05-23T02:35:33;98983.06;;;100.84;3.36
23643;BME280;11998;55.788;37.572;2023-05-23T02:36:33;98993.41;;;102.57;3.07
23643;BME280;11998;55.788;37.572;2023-05-23T02:37:36;98994.16;;;103.11;2.90
23643;BME280;11998;55.788;37.572;2023-05-23T02:38:36;98987.84;;;102.34;3.33
23643;BME280;11998;55.788;37.572;2023-05-23T02:39:37;98991.50;;;103.01;3.11
23643;BME280;11998;55.788;37.572;2023-05-23T02:40:37;98984.66;;;103.41;2.93
23643;BME280;11998;55.788;37.572;2023-05-23T02:41:38;98977.25;;;101.52;3.43
23643;BME280;11998;55.788;37.572;2023-05-23T02:42:39;98983.28;;;101.83;3.40
23643;BME280;11998;55.788;37.572;2023-05-23T02:43:39;98963.22;;;100.24;3.26
23643;BME280;11998;55.788;37.572;2023-05-23T02:44:40;98982.28;;;100.84;3.22
23643;BME280;11998;55.788;37.572;2023-05-23T02:45:40;98976.44;;;101.04;3.36
23643;BME280;11998;55.788;37.572;2023-05-23T02:46:41;98977.44;;;101.40;3.33
23643;BME280;11998;55.788;37.572;2023-05-23T02:47:41;98988.34;;;101.94;3.21
23643;BME280;11998;55.788;37.572;2023-05-23T02:48:42;98982.34;;;101.15;3.45
23643;BME280;11998;55.788;37.572;2023-05-23T02:49:43;98993.53;;;103.52;2.84
23643;BME280;11998;55.788;37.572;2023-05-23T02:50:44;98988.09;;;102.57;2.96
23643;BME280;11998;55.788;37.572;2023-05-23T02:51:44;99003.66;;;104.20;3.16
23643;BME280;11998;55.788;37.572;2023-05-23T02:52:45;99002.19;;;104.00;3.41
23643;BME280;11998;55.788;37.572;2023-05-23T02:53:46;98993.56;;;103.15;2.85
23643;BME280;11998;55.788;37.572;2023-05-23T02:54:46;98996.06;;;103.80;2.94
23643;BME280;11998;55.788;37.572;2023-05-23T02:55:47;98988.75;;;103.09;3.29
23643;BME280;11998;55.788;37.572;2023-05-23T02:56:47;98999.94;;;102.85;2.91
23643;BME280;11998;55.788;37.572;2023-05-23T02:57:49;98998.28;;;103.57;3.00
23643;BME280;11998;55.788;37.572;2023-05-23T02:58:50;98987.59;;;102.81;3.30
23643;BME280;11998;55.788;37.572;2023-05-23T02:59:52;98986.19;;;102.84;3.24
23643;BME280;11998;55.788;37.572;2023-05-23T03:00:53;98996.78;;;103.78;3.15
23643;BME280;11998;55.788;37.572;2023-05-23T03:01:54;99001.78;;;104.53;3.20
23643;BME280;11998;55.788;37.572;2023-05-23T03:02:54;98995.31;;;104.89;2.77
23643;BME280;11998;55.788;37.572;2023-05-23T03:03:55;99004.59;;;105.41;2.94
23643;BME280;11998;55.788;37.572;2023-05-23T03:04:56;99001.28;;;105.32;2.82
23643;BME280;11998;55.788;37.572;2023-05-23T03:05:57;98999.66;;;104.36;3.32
23643;BME280;11998;55.788;37.572;2023-05-23T03:06:57;99001.53;;;104.03;3.21
23643;BME280;11998;55.788;37.572;2023-05-23T03:07:58;99005.56;;;103.88;2.72
23643;BME280;11998;55.788;37.572;2023-05-23T03:09:00;98991.75;;;102.72;3.03
23643;BME280;11998;55.788;37.572;2023-05-23T03:10:00;98991.13;;;103.11;3.32
23643;BME280;11998;55.788;37.572;2023-05-23T03:11:01;98993.06;;;103.22;2.79
23643;BME280;11998;55.788;37.572;2023-05-23T03:12:02;98990.81;;;102.32;3.24
23643;BME280;11998;55.788;37.572;2023-05-23T03:13:03;99001.41;;;102.13;3.34
23643;BME280;11998;55.788;37.572;2023-05-23T03:14:03;98990.72;;;102.83;2.86
23643;BME280;11998;55.788;37.572;2023-05-23T03:15:04;98979.91;;;100.82;3.20
23643;BME280;11998;55.788;37.572;2023-05-23T03:16:05;98999.47;;;102.21;3.38
23643;BME280;11998;55.788;37.572;2023-05-23T03:17:06;99002.03;;;102.98;3.19
23643;BME280;11998;55.788;37.572;2023-05-23T03:18:07;98992.13;;;101.77;3.18
23643;BME280;11998;55.788;37.572;2023-05-23T03:19:07;98988.44;;;101.31;3.31
23643;BME280;11998;55.788;37.572;2023-05-23T03:20:08;98989.97;;;101.01;3.27
23643;BME280;11998;55.788;37.572;2023-05-23T03:21:09;98976.41;;;99.60;3.59
23643;BME280;11998;55.788;37.572;2023-05-23T03:22:10;98984.53;;;100.54;3.16
23643;BME280;11998;55.788;37.572;2023-05-23T03:23:10;98983.78;;;100.69;3.16
23643;BME280;11998;55.788;37.572;2023-05-23T03:24:11;98983.06;;;100.55;3.58
23643;BME280;11998;55.788;37.572;2023-05-23T03:25:11;99003.94;;;101.37;3.38
23643;BME280;11998;55.788;37.572;2023-05-23T03:26:12;98972.94;;;98.25;3.84
23643;BME280;11998;55.788;37.572;2023-05-23T03:27:12;98988.91;;;99.66;3.20
23643;BME280;11998;55.788;37.572;2023-05-23T03:28:13;98987.44;;;99.81;3.15
23643;BME280;11998;55.788;37.572;2023-05-23T03:29:14;98989.13;;;99.98;3.42
23643;BME280;11998;55.788;37.572;2023-05-23T03:30:15;98981.41;;;100.52;3.23
23643;BME280;11998;55.788;37.572;2023-05-23T03:31:16;98987.97;;;100.32;3.47
23643;BME280;11998;55.788;37.572;2023-05-23T03:32:16;98991.13;;;100.94;3.22
23643;BME280;11998;55.788;37.572;2023-05-23T03:33:17;98985.63;;;99.09;3.31
23643;BME280;11998;55.788;37.572;2023-05-23T03:34:17;98980.13;;;100.27;3.12
23643;BME280;11998;55.788;37.572;2023-05-23T03:35:18;98988.75;;;100.76;3.32
23643;BME280;11998;55.788;37.572;2023-05-23T03:36:19;98994.63;;;101.65;3.20
23643;BME280;11998;55.788;37.572;2023-05-23T03:37:21;98979.72;;;100.78;3.27
23643;BME280;11998;55.788;37.572;2023-05-23T03:38:21;98974.25;;;98.71;3.35
23643;BME280;11998;55.788;37.572;2023-05-23T03:39:22;98981.38;;;100.81;3.14
23643;BME280;11998;55.788;37.572;2023-05-23T03:40:23;98992.28;;;102.48;3.26
23643;BME280;11998;55.788;37.572;2023-05-23T03:41:24;98973.06;;;97.10;3.79
23643;BME280;11998;55.788;37.572;2023-05-23T03:42:27;98979.44;;;98.07;3.28
23643;BME280;11998;55.788;37.572;2023-05-23T03:43:27;98982.97;;;98.64;3.56
23643;BME280;11998;55.788;37.572;2023-05-23T03:44:28;98987.81;;;99.20;3.54
23643;BME280;11998;55.788;37.572;2023-05-23T03:45:30;98997.22;;;100.64;3.42
23643;BME280;11998;55.788;37.572;2023-05-23T03:46:30;98974.47;;;98.75;3.80
23643;BME280;11998;55.788;37.572;2023-05-23T03:47:31;98980.91;;;100.14;3.41
23643;BME280;11998;55.788;37.572;2023-05-23T03:48:32;98997.38;;;101.27;3.26
23643;BME280;11998;55.788;37.572;2023-05-23T03:49:32;98968.38;;;98.86;3.54
23643;BME280;11998;55.788;37.572;2023-05-23T03:50:33;98984.84;;;100.89;3.48
23643;BME280;11998;55.788;37.572;2023-05-23T03:51:33;98991.06;;;102.55;3.16
23643;BME280;11998;55.788;37.572;2023-05-23T03:52:34;99000.84;;;103.85;2.75
23643;BME280;11998;55.788;37.572;2023-05-23T03:53:34;99001.75;;;104.75;3.15
23643;BME280;11998;55.788;37.572;2023-05-23T03:54:35;98994.22;;;105.02;2.99
23643;BME280;11998;55.788;37.572;2023-05-23T03:55:37;98995.25;;;105.60;3.10
23643;BME280;11998;55.788;37.572;2023-05-23T03:56:38;98992.66;;;104.11;3.24
23643;BME280;11998;55.788;37.572;2023-05-23T03:57:38;98981.66;;;101.17;3.21
23643;BME280;11998;55.788;37.572;2023-05-23T03:58:39;98972.91;;;100.21;3.32
23643;BME280;11998;55.788;37.572;2023-05-23T03:59:40;98984.81;;;102.51;3.33
23643;BME280;11998;55.788;37.572;2023-05-23T04:00:40;98989.06;;;103.75;2.97
23643;BME280;11998;55.788;37.572;2023-05-23T04:01:41;98991.84;;;104.98;3.12
23643;BME280;11998;55.788;37.572;2023-05-23T04:02:41;98994.28;;;105.04;2.97
23643;BME280;11998;55.788;37.572;2023-05-23T04:03:43;98990.69;;;105.12;2.96
23643;BME280;11998;55.788;37.572;2023-05-23T04:04:43;98995.09;;;105.56;2.60
23643;BME280;11998;55.788;37.572;2023-05-23T04:05:44;98972.53;;;101.64;3.33
23643;BME280;11998;55.788;37.572;2023-05-23T04:06:45;98985.34;;;103.79;2.72
23643;BME280;11998;55.788;37.572;2023-05-23T04:07:45;98988.53;;;104.68;2.85
23643;BME280;11998;55.788;37.572;2023-05-23T04:08:46;98973.78;;;103.16;2.83
23643;BME280;11998;55.788;37.572;2023-05-23T04:09:47;98971.91;;;103.46;2.81
23643;BME280;11998;55.788;37.572;2023-05-23T04:10:48;98979.25;;;103.79;2.84
23643;BME280;11998;55.788;37.572;2023-05-23T04:11:48;98988.28;;;103.75;3.07
23643;BME280;11998;55.788;37.572;2023-05-23T04:12:49;98985.28;;;104.18;3.33
23643;BME280;11998;55.788;37.572;2023-05-23T04:13:50;98984.59;;;104.88;2.83
23643;BME280;11998;55.788;37.572;2023-05-23T04:14:52;98985.06;;;104.12;3.26
23643;BME280;11998;55.788;37.572;2023-05-23T04:15:53;98993.63;;;104.84;3.24
23643;BME280;11998;55.788;37.572;2023-05-23T04:16:55;99002.19;;;105.63;3.08
23643;BME280;11998;55.788;37.572;2023-05-23T04:17:56;98989.84;;;102.63;3.38
23643;BME280;11998;55.788;37.572;2023-05-23T04:18:58;98991.53;;;104.66;2.86
23643;BME280;11998;55.788;37.572;2023-05-23T04:19:59;98982.69;;;104.76;3.17
23643;BME280;11998;55.788;37.572;2023-05-23T04:21:00;98986.28;;;104.03;3.37
23643;BME280;11998;55.788;37.572;2023-05-23T04:22:00;98983.88;;;104.65;3.13
23643;BME280;11998;55.788;37.572;2023-05-23T04:23:01;98986.72;;;105.07;2.83
23643;BME280;11998;55.788;37.572;2023-05-23T04:24:02;98989.72;;;105.81;2.70
23643;BME280;11998;55.788;37.572;2023-05-23T04:25:03;98989.06;;;105.84;2.71
23643;BME280;11998;55.788;37.572;2023-05-23T04:26:03;98982.28;;;105.36;3.10
23643;BME280;11998;55.788;37.572;2023-05-23T04:27:09;98988.47;;;105.64;2.89
23643;BME280;11998;55.788;37.572;2023-05-23T04:28:11;98973.47;;;102.18;3.28
23643;BME280;11998;55.788;37.572;2023-05-23T04:29:11;98969.81;;;102.93;3.29
23643;BME280;11998;55.788;37.572;2023-05-23T04:30:12;98985.81;;;106.06;2.73
23643;BME280;11998;55.788;37.572;2023-05-23T04:31:13;98985.47;;;105.94;3.07
23643;BME280;11998;55.788;37.572;2023-05-23T04:32:14;98980.19;;;106.87;2.82
23643;BME280;11998;55.788;37.572;2023-05-23T04:33:16;98981.91;;;106.04;2.83
23643;BME280;11998;55.788;37.572;2023-05-23T04:34:17;98984.34;;;106.37;2.88
23643;BME280;11998;55.788;37.572;2023-05-23T04:35:21;98982.84;;;106.38;3.04
23643;BME280;11998;55.788;37.572;2023-05-23T04:36:22;98978.47;;;105.90;2.84
23643;BME280;11998;55.788;37.572;2023-05-23T04:37:22;98983.38;;;105.73;2.78
23643;BME280;11998;55.788;37.572;2023-05-23T04:38:25;98986.09;;;105.88;3.02
23643;BME280;11998;55.788;37.572;2023-05-23T04:39:30;98972.00;;;105.49;2.75
23643;BME280;11998;55.788;37.572;2023-05-23T04:40:30;98975.41;;;105.36;3.14
23643;BME280;11998;55.788;37.572;2023-05-23T04:41:31;98981.78;;;105.20;2.65
23643;BME280;11998;55.788;37.572;2023-05-23T04:42:32;98967.53;;;104.35;2.87
23643;BME280;11998;55.788;37.572;2023-05-23T04:43:32;98961.13;;;102.32;3.59
23643;BME280;11998;55.788;37.572;2023-05-23T04:44:33;98969.53;;;104.26;2.84
23643;BME280;11998;55.788;37.572;2023-05-23T04:45:36;98981.38;;;105.31;2.66
23643;BME280;11998;55.788;37.572;2023-05-23T04:46:37;98980.94;;;105.69;3.03
23643;BME280;11998;55.788;37.572;2023-05-23T04:47:41;98980.56;;;104.59;3.23
23643;BME280;11998;55.788;37.572;2023-05-23T04:48:44;98972.81;;;105.02;3.14
23643;BME280;11998;55.788;37.572;2023-05-23T04:49:44;98979.81;;;105.30;3.04
23643;BME280;11998;55.788;37.572;2023-05-23T04:50:45;98976.09;;;104.62;2.67
23643;BME280;11998;55.788;37.572;2023-05-23T04:51:47;98973.66;;;105.54;2.86
23643;BME280;11998;55.788;37.572;2023-05-23T04:52:48;98969.97;;;104.16;2.92
23643;BME280;11998;55.788;37.572;2023-05-23T04:53:49;98969.72;;;105.00;2.95
23643;BME280;11998;55.788;37.572;2023-05-23T04:54:50;98964.38;;;105.00;2.80
23643;BME280;11998;55.788;37.572;2023-05-23T04:55:53;98979.28;;;105.92;2.87
23643;BME280;11998;55.788;37.572;2023-05-23T04:56:53;98991.59;;;106.22;2.69
23643;BME280;11998;55.788;37.572;2023-05-23T04:57:54;98991.16;;;106.34;2.96
23643;BME280;11998;55.788;37.572;2023-05-23T04:58:55;98971.81;;;104.26;3.12
23643;BME280;11998;55.788;37.572;2023-05-23T04:59:56;98979.31;;;104.66;3.18
23643;BME280;11998;55.788;37.572;2023-05-23T05:00:56;98976.09;;;102.62;3.30
23643;BME280;11998;55.788;37.572;2023-05-23T05:01:57;98983.44;;;104.53;3.35
23643;BME280;11998;55.788;37.572;2023-05-23T05:02:58;98981.94;;;105.00;2.67
23643;BME280;11998;55.788;37.572;2023-05-23T05:03:59;98985.03;;;105.26;2.86
23643;BME280;11998;55.788;37.572;2023-05-23T05:04:59;98990.09;;;105.67;2.99
23643;BME280;11998;55.788;37.572;2023-05-23T05:06:00;98991.16;;;106.06;3.00
23643;BME280;11998;55.788;37.572;2023-05-23T05:07:01;98993.22;;;106.25;2.99
23643;BME280;11998;55.788;37.572;2023-05-23T05:08:03;98985.16;;;106.10;3.24
23643;BME280;11998;55.788;37.572;2023-05-23T05:09:04;98979.28;;;105.64;2.85
23643;BME280;11998;55.788;37.572;2023-05-23T05:10:05;98984.00;;;105.17;3.22
23643;BME280;11998;55.788;37.572;2023-05-23T05:11:06;98986.78;;;103.76;3.40
23643;BME280;11998;55.788;37.572;2023-05-23T05:12:07;98990.53;;;102.79;3.20
23643;BME280;11998;55.788;37.572;2023-05-23T05:13:07;98969.94;;;100.96;3.36
23643;BME280;11998;55.788;37.572;2023-05-23T05:14:08;98988.81;;;102.74;3.32
23643;BME280;11998;55.788;37.572;2023-05-23T05:15:09;98995.75;;;103.32;2.94
23643;BME280;11998;55.788;37.572;2023-05-23T05:16:09;98994.69;;;103.63;3.42
23643;BME280;11998;55.788;37.572;2023-05-23T05:17:10;98994.50;;;104.20;3.18
23643;BME280;11998;55.788;37.572;2023-05-23T05:18:12;98991.47;;;103.59;3.39
23643;BME280;11998;55.788;37.572;2023-05-23T05:19:13;99005.38;;;103.84;3.04
23643;BME280;11998;55.788;37.572;2023-05-23T05:20:14;99000.69;;;103.41;2.93
23643;BME280;11998;55.788;37.572;2023-05-23T05:21:15;99006.94;;;103.85;3.33
23643;BME280;11998;55.788;37.572;2023-05-23T05:22:16;99007.13;;;103.11;3.29
23643;BME280;11998;55.788;37.572;2023-05-23T05:23:17;99006.66;;;103.57;3.33
23643;BME280;11998;55.788;37.572;2023-05-23T05:24:18;99016.81;;;103.63;2.98
23643;BME280;11998;55.788;37.572;2023-05-23T05:25:20;99018.75;;;103.35;3.38
23643;BME280;11998;55.788;37.572;2023-05-23T05:26:20;99008.31;;;103.22;3.39
23643;BME280;11998;55.788;37.572;2023-05-23T05:27:22;99008.59;;;103.68;2.94
23643;BME280;11998;55.788;37.572;2023-05-23T05:28:23;99006.72;;;101.96;3.47